createdAt,value
2018-07-24T00:01:02.284Z,20.70
2018-07-24T00:03:31.593Z,20.70
2018-07-24T00:06:00.967Z,20.60
2018-07-24T00:08:30.376Z,20.50
2018-07-24T00:10:59.762Z,20.40
2018-07-24T00:15:58.340Z,20.30
2018-07-24T00:18:27.653Z,20.30
2018-07-24T00:20:56.980Z,20.30
2018-07-24T00:23:26.311Z,20.30
2018-07-24T00:25:55.738Z,20.30
2018-07-24T00:28:25.103Z,20.30
2018-07-24T00:30:54.472Z,20.20
2018-07-24T00:33:23.767Z,20.20
2018-07-24T00:35:53.171Z,20.20
2018-07-24T00:38:22.513Z,20.20
2018-07-24T00:40:51.844Z,20.20
2018-07-24T00:45:50.052Z,20.30
2018-07-24T00:48:19.490Z,20.20
2018-07-24T00:50:48.895Z,20.10
2018-07-24T00:53:18.202Z,20.10
2018-07-24T00:55:47.586Z,20.10
2018-07-24T00:58:16.940Z,20.20
2018-07-24T01:03:15.289Z,20.10
2018-07-24T01:05:44.643Z,20.10
2018-07-24T01:13:11.753Z,20.10
2018-07-24T01:15:41.164Z,20.00
2018-07-24T01:18:10.524Z,20.00
2018-07-24T01:20:39.903Z,20.00
2018-07-24T01:25:38.309Z,19.90
2018-07-24T01:28:07.704Z,19.80
2018-07-24T01:30:40.015Z,19.80
2018-07-24T01:33:09.385Z,19.80
2018-07-24T01:35:38.738Z,19.80
2018-07-24T01:38:08.126Z,19.70
2018-07-24T01:40:37.521Z,19.70
2018-07-24T01:43:06.937Z,19.70
2018-07-24T01:45:36.256Z,19.60
2018-07-24T01:48:05.698Z,19.60
2018-07-24T01:50:35.020Z,19.40
2018-07-24T01:55:33.296Z,19.40
2018-07-24T01:58:02.863Z,19.40
2018-07-24T02:00:35.107Z,19.40
2018-07-24T02:03:04.523Z,19.40
2018-07-24T02:05:33.884Z,19.40
2018-07-24T02:08:03.275Z,19.40
2018-07-24T02:10:32.663Z,19.40
2018-07-24T02:13:02.008Z,19.40
2018-07-24T02:15:31.335Z,19.40
2018-07-24T02:18:00.676Z,19.40
2018-07-24T02:20:30.007Z,19.30
2018-07-24T02:22:59.364Z,19.20
2018-07-24T02:25:28.695Z,19.20
2018-07-24T02:27:58.043Z,19.20
2018-07-24T02:30:27.405Z,19.20
2018-07-24T02:32:57.421Z,19.20
2018-07-24T02:35:26.769Z,19.20
2018-07-24T02:37:56.133Z,19.20
2018-07-24T02:40:25.488Z,19.20
2018-07-24T02:42:54.890Z,19.20
2018-07-24T02:45:24.232Z,19.20
2018-07-24T02:47:53.596Z,19.20
2018-07-24T02:50:22.949Z,19.10
2018-07-24T02:52:52.297Z,19.10
2018-07-24T02:55:21.748Z,19.10
2018-07-24T02:57:51.094Z,19.10
2018-07-24T03:00:20.492Z,19.10
2018-07-24T03:02:49.838Z,19.10
2018-07-24T03:05:19.234Z,19.00
2018-07-24T03:07:48.564Z,19.00
2018-07-24T03:10:17.910Z,19.00
2018-07-24T03:12:47.244Z,19.00
2018-07-24T03:15:16.602Z,19.00
2018-07-24T03:17:45.944Z,19.00
2018-07-24T03:20:15.332Z,19.00
2018-07-24T03:22:44.680Z,19.00
2018-07-24T03:25:14.058Z,19.00
2018-07-24T03:27:43.438Z,19.00
2018-07-24T03:30:12.793Z,18.90
2018-07-24T03:32:42.169Z,18.90
2018-07-24T03:35:11.599Z,18.70
2018-07-24T03:37:40.944Z,18.70
2018-07-24T03:40:10.300Z,18.60
2018-07-24T03:42:39.648Z,18.60
2018-07-24T03:45:09.147Z,18.60
2018-07-24T03:47:38.472Z,18.70
2018-07-24T03:50:07.805Z,18.70
2018-07-24T03:52:37.140Z,18.70
2018-07-24T03:55:06.516Z,18.70
2018-07-24T03:57:35.856Z,18.70
2018-07-24T04:00:05.714Z,18.60
2018-07-24T04:02:35.049Z,18.60
2018-07-24T04:05:04.527Z,18.70
2018-07-24T04:07:33.861Z,18.60
2018-07-24T04:10:03.313Z,18.70
2018-07-24T04:15:01.538Z,18.60
2018-07-24T04:17:30.916Z,18.60
2018-07-24T04:20:00.278Z,18.60
2018-07-24T04:22:29.599Z,18.60
2018-07-24T04:27:27.820Z,18.70
2018-07-24T04:29:57.299Z,18.70
2018-07-24T04:34:55.560Z,18.70
2018-07-24T04:37:24.861Z,18.80
2018-07-24T04:39:54.285Z,18.80
2018-07-24T04:42:23.607Z,18.80
2018-07-24T04:44:53.333Z,18.80
2018-07-24T04:47:22.712Z,18.80
2018-07-24T04:49:52.081Z,18.80
2018-07-24T04:52:21.427Z,18.80
2018-07-24T04:54:50.774Z,18.80
2018-07-24T04:57:20.149Z,18.80
2018-07-24T04:59:49.521Z,18.80
2018-07-24T05:02:18.848Z,18.80
2018-07-24T05:04:48.210Z,18.70
2018-07-24T05:07:17.532Z,18.70
2018-07-24T05:09:46.918Z,18.80
2018-07-24T05:12:16.310Z,18.80
2018-07-24T05:14:45.665Z,18.80
2018-07-24T05:17:15.001Z,18.80
2018-07-24T05:19:44.342Z,18.90
2018-07-24T05:22:13.903Z,18.90
2018-07-24T05:24:44.081Z,18.90
2018-07-24T05:27:13.641Z,18.90
2018-07-24T05:29:43.241Z,18.90
2018-07-24T05:32:12.788Z,19.00
2018-07-24T05:34:42.460Z,19.00
2018-07-24T05:37:12.123Z,19.00
2018-07-24T05:39:41.608Z,19.00
2018-07-24T05:44:39.922Z,19.10
2018-07-24T05:47:09.381Z,19.20
2018-07-24T05:49:38.682Z,19.30
2018-07-24T05:52:08.033Z,19.30
2018-07-24T05:54:37.352Z,19.40
2018-07-24T05:57:06.792Z,19.40
2018-07-24T05:59:36.217Z,19.60
2018-07-24T06:02:05.632Z,19.60
2018-07-24T06:04:34.982Z,19.70
2018-07-24T06:07:04.385Z,19.80
2018-07-24T06:09:33.757Z,19.80
2018-07-24T06:12:03.157Z,19.90
2018-07-24T06:14:32.577Z,20.00
2018-07-24T06:17:01.953Z,20.00
2018-07-24T06:19:31.311Z,20.10
2018-07-24T06:22:00.655Z,20.20
2018-07-24T06:24:29.979Z,20.20
2018-07-24T06:26:59.389Z,20.30
2018-07-24T06:29:28.711Z,20.40
2018-07-24T06:31:58.104Z,20.40
2018-07-24T06:34:27.449Z,20.50
2018-07-24T06:39:25.776Z,20.70
2018-07-24T06:41:55.147Z,20.80
2018-07-24T06:46:53.373Z,20.90
2018-07-24T06:49:22.747Z,21.00
2018-07-24T06:51:52.153Z,21.00
2018-07-24T06:54:21.510Z,21.10
2018-07-24T06:56:50.956Z,21.20
2018-07-24T06:59:20.343Z,21.30
2018-07-24T07:01:49.775Z,21.40
2018-07-24T07:04:19.145Z,21.50
2018-07-24T07:06:48.494Z,21.60
2018-07-24T07:09:17.823Z,21.70
2018-07-24T07:11:47.156Z,21.80
2018-07-24T07:16:45.456Z,22.00
2018-07-24T07:19:15.533Z,22.10
2018-07-24T07:21:44.896Z,22.20
2018-07-24T07:24:14.273Z,22.30
2018-07-24T07:29:12.559Z,22.60
2018-07-24T07:31:41.928Z,22.70
2018-07-24T07:34:11.296Z,22.80
2018-07-24T07:36:40.625Z,23.00
2018-07-24T07:39:11.077Z,23.00
2018-07-24T07:41:40.799Z,23.10
2018-07-24T07:44:10.212Z,23.20
2018-07-24T07:49:08.478Z,23.40
2018-07-24T07:51:37.817Z,23.50
2018-07-24T07:54:07.181Z,23.60
2018-07-24T07:56:36.519Z,23.70
2018-07-24T07:59:05.880Z,23.80
2018-07-24T08:01:35.249Z,23.90
2018-07-24T08:04:04.653Z,24.00
2018-07-24T08:06:33.996Z,24.10
2018-07-24T08:11:33.000Z,24.30
2018-07-24T08:14:02.388Z,24.40
2018-07-24T08:16:31.733Z,24.50
2018-07-24T08:19:02.701Z,24.60
2018-07-24T08:21:32.409Z,24.70
2018-07-24T08:24:01.990Z,24.80
2018-07-24T08:29:00.652Z,25.10
2018-07-24T08:33:59.400Z,25.30
2018-07-24T08:36:29.032Z,25.40
2018-07-24T08:38:58.608Z,25.50
2018-07-24T08:41:28.151Z,25.60
2018-07-24T08:43:57.711Z,25.70
2018-07-24T08:48:56.351Z,25.90
2018-07-24T08:51:25.928Z,26.00
2018-07-24T08:53:55.760Z,26.10
2018-07-24T08:56:25.143Z,26.30
2018-07-24T08:58:54.736Z,26.30
2018-07-24T09:01:24.393Z,26.40
2018-07-24T09:03:54.039Z,26.50
2018-07-24T09:06:23.661Z,26.60
2018-07-24T09:13:51.011Z,26.80
2018-07-24T09:16:20.408Z,27.00
2018-07-24T09:18:49.732Z,27.10
2018-07-24T09:21:19.109Z,27.20
2018-07-24T09:23:48.989Z,27.30
2018-07-24T09:26:18.712Z,27.30
2018-07-24T09:28:48.409Z,27.40
2018-07-24T09:31:18.162Z,27.50
2018-07-24T09:33:47.904Z,27.60
2018-07-24T09:36:18.525Z,27.70
2018-07-24T09:38:48.173Z,27.80
2018-07-24T09:41:17.575Z,27.90
2018-07-24T09:43:47.009Z,28.00
2018-07-24T09:46:16.371Z,28.10
2018-07-24T09:48:45.689Z,28.10
2018-07-24T09:51:15.383Z,28.10
2018-07-24T09:53:44.969Z,28.10
2018-07-24T09:56:14.392Z,28.20
2018-07-24T09:58:43.713Z,28.30
2018-07-24T10:01:18.328Z,28.40
2018-07-24T10:06:16.552Z,28.60
2018-07-24T10:08:45.897Z,28.60
2018-07-24T10:13:44.099Z,28.70
2018-07-24T10:16:13.609Z,28.80
2018-07-24T10:21:11.946Z,28.90
2018-07-24T10:23:41.287Z,28.90
2018-07-24T10:26:10.660Z,29.00
2018-07-24T10:28:39.996Z,29.10
2018-07-24T10:31:09.322Z,29.20
2018-07-24T10:33:38.655Z,29.30
2018-07-24T10:36:08.020Z,29.30
2018-07-24T10:38:37.623Z,29.50
2018-07-24T10:41:07.432Z,29.50
2018-07-24T10:46:06.313Z,29.60
2018-07-24T10:48:35.631Z,29.70
2018-07-24T10:51:05.010Z,29.80
2018-07-24T10:53:34.377Z,29.80
2018-07-24T10:56:03.797Z,29.80
2018-07-24T10:58:33.118Z,29.70
2018-07-24T11:01:02.526Z,29.70
2018-07-24T11:03:31.869Z,29.70
2018-07-24T11:08:30.087Z,29.90
2018-07-24T11:10:59.447Z,29.90
2018-07-24T11:13:28.828Z,29.90
2018-07-24T11:15:58.197Z,30.00
2018-07-24T11:18:27.528Z,30.10
2018-07-24T11:20:56.886Z,30.20
2018-07-24T11:23:26.253Z,30.20
2018-07-24T11:25:55.606Z,30.10
2018-07-24T11:28:25.055Z,30.10
2018-07-24T11:30:54.413Z,30.00
2018-07-24T11:33:23.843Z,29.90
2018-07-24T11:35:53.304Z,29.90
2018-07-24T11:38:22.586Z,29.80
2018-07-24T11:40:51.926Z,29.80
2018-07-24T11:43:21.296Z,29.90
2018-07-24T11:45:50.641Z,30.10
2018-07-24T11:48:20.044Z,30.20
2018-07-24T11:50:49.386Z,30.30
2018-07-24T11:55:47.625Z,30.40
2018-07-24T11:58:17.021Z,30.40
2018-07-24T12:00:46.416Z,30.40
2018-07-24T12:03:15.785Z,30.40
2018-07-24T12:05:45.124Z,30.50
2018-07-24T12:08:14.496Z,30.70
2018-07-24T12:10:43.813Z,30.80
2018-07-24T12:13:13.173Z,30.80
2018-07-24T12:15:42.476Z,30.80
2018-07-24T12:18:11.857Z,30.80
2018-07-24T12:20:41.193Z,30.90
2018-07-24T12:25:40.478Z,31.20
2018-07-24T12:28:10.046Z,31.20
2018-07-24T12:30:39.549Z,31.20
2018-07-24T12:33:09.202Z,31.30
2018-07-24T12:35:41.847Z,31.40
2018-07-24T12:38:11.467Z,31.30
2018-07-24T12:40:40.964Z,31.00
2018-07-24T12:43:10.598Z,30.90
2018-07-24T12:45:39.932Z,30.90
2018-07-24T12:48:09.297Z,31.10
2018-07-24T12:50:38.725Z,31.20
2018-07-24T12:58:05.954Z,31.50
2018-07-24T13:00:35.362Z,31.50
2018-07-24T13:03:04.735Z,31.60
2018-07-24T13:10:31.907Z,31.80
2018-07-24T13:13:01.272Z,31.90
2018-07-24T13:15:30.656Z,32.00
2018-07-24T13:18:00.049Z,32.00
2018-07-24T13:20:29.386Z,31.80
2018-07-24T13:22:58.725Z,31.70
2018-07-24T13:27:56.913Z,31.50
2018-07-24T13:32:55.877Z,31.70
2018-07-24T13:35:25.265Z,31.90
2018-07-24T13:37:54.577Z,32.00
2018-07-24T13:40:23.952Z,32.10
2018-07-24T13:42:53.331Z,32.10
2018-07-24T13:47:51.567Z,32.20
2018-07-24T13:50:20.959Z,32.20
2018-07-24T13:52:50.287Z,32.10
2018-07-24T13:55:19.705Z,32.00
2018-07-24T13:57:49.029Z,32.00
2018-07-24T14:02:47.281Z,32.30
2018-07-24T14:05:16.653Z,32.20
2018-07-24T14:07:45.990Z,32.10
2018-07-24T14:10:15.352Z,31.90
2018-07-24T14:12:45.050Z,31.70
2018-07-24T14:15:14.400Z,31.60
2018-07-24T14:17:43.889Z,31.50
2018-07-24T14:20:13.260Z,31.40
2018-07-24T14:22:42.611Z,31.40
2018-07-24T14:25:11.985Z,31.50
2018-07-24T14:27:41.365Z,31.70
2018-07-24T14:30:10.736Z,31.90
2018-07-24T14:32:40.100Z,32.10
2018-07-24T14:35:09.454Z,32.20
2018-07-24T14:40:07.704Z,32.40
2018-07-24T14:42:37.033Z,32.60
2018-07-24T14:45:06.664Z,32.60
2018-07-24T14:47:36.040Z,32.80
2018-07-24T14:50:05.491Z,32.80
2018-07-24T14:52:34.889Z,32.90
2018-07-24T14:55:04.268Z,33.10
2018-07-24T15:00:02.536Z,33.10
2018-07-24T15:05:00.810Z,33.00
2018-07-24T15:07:30.212Z,33.10
2018-07-24T15:09:59.591Z,33.20
2018-07-24T15:12:28.991Z,33.40
2018-07-24T15:14:58.378Z,33.50
2018-07-24T15:17:27.726Z,33.60
2018-07-24T15:19:57.107Z,33.70
2018-07-24T15:22:26.496Z,33.80
2018-07-24T15:24:55.844Z,33.90
2018-07-24T15:27:25.297Z,34.00
2018-07-24T15:29:54.641Z,34.10
2018-07-24T15:32:24.061Z,34.10
2018-07-24T15:34:53.475Z,34.30
2018-07-24T15:37:22.863Z,34.30
2018-07-24T15:39:52.215Z,34.30
2018-07-24T15:42:21.574Z,34.30
2018-07-24T15:44:51.072Z,34.40
2018-07-24T15:47:20.656Z,34.40
2018-07-24T15:49:50.229Z,34.40
2018-07-24T15:52:19.872Z,34.50
2018-07-24T15:54:49.754Z,34.40
2018-07-24T15:57:19.109Z,34.30
2018-07-24T15:59:48.503Z,34.10
2018-07-24T16:02:17.839Z,34.10
2018-07-24T16:04:47.202Z,34.20
2018-07-24T16:07:16.571Z,34.30
2018-07-24T16:09:45.933Z,34.20
2018-07-24T16:14:44.588Z,34.20
2018-07-24T16:17:14.232Z,34.10
2018-07-24T16:19:43.704Z,34.00
2018-07-24T16:22:13.063Z,33.90
2018-07-24T16:27:11.281Z,33.80
2018-07-24T16:29:40.633Z,33.80
2018-07-24T16:32:10.124Z,33.80
2018-07-24T16:34:39.472Z,33.70
2018-07-24T16:37:08.872Z,33.50
2018-07-24T16:39:38.218Z,33.50
2018-07-24T16:42:07.787Z,33.50
2018-07-24T16:44:37.157Z,33.50
2018-07-24T16:47:06.699Z,33.50
2018-07-24T16:49:36.026Z,33.50
2018-07-24T16:52:05.441Z,33.40
2018-07-24T16:54:35.030Z,33.50
2018-07-24T16:57:04.647Z,33.60
2018-07-24T16:59:34.107Z,33.60
2018-07-24T17:02:03.828Z,33.60
2018-07-24T17:04:33.365Z,33.60
2018-07-24T17:07:02.904Z,33.50
2018-07-24T17:14:30.752Z,33.30
2018-07-24T17:17:00.260Z,33.20
2018-07-24T17:19:29.631Z,33.20
2018-07-24T17:21:59.887Z,33.20
2018-07-24T17:24:29.265Z,33.20
2018-07-24T17:26:58.639Z,33.20
2018-07-24T17:29:34.348Z,33.10
2018-07-24T17:32:03.733Z,32.80
2018-07-24T17:34:33.080Z,32.60
2018-07-24T17:37:02.378Z,32.30
2018-07-24T17:39:31.828Z,32.00
2018-07-24T17:42:01.443Z,31.70
2018-07-24T17:44:31.007Z,31.50
2018-07-24T17:47:00.575Z,31.30
2018-07-24T17:49:30.115Z,31.10
2018-07-24T17:54:28.690Z,30.80
2018-07-24T17:56:58.231Z,30.60
2018-07-24T17:59:27.612Z,30.40
2018-07-24T18:01:56.964Z,30.30
2018-07-24T18:04:26.362Z,30.20
2018-07-24T18:06:55.812Z,30.20
2018-07-24T18:09:25.253Z,30.20
2018-07-24T18:11:54.579Z,30.20
2018-07-24T18:14:23.917Z,30.10
2018-07-24T18:16:53.264Z,30.00
2018-07-24T18:21:51.493Z,29.80
2018-07-24T18:24:20.864Z,29.70
2018-07-24T18:26:50.209Z,29.60
2018-07-24T18:29:20.100Z,29.60
2018-07-24T18:31:49.472Z,29.50
2018-07-24T18:36:47.892Z,29.10
2018-07-24T18:39:17.235Z,28.80
2018-07-24T18:41:46.560Z,28.70
2018-07-24T18:44:15.936Z,28.50
2018-07-24T18:46:46.182Z,28.30
2018-07-24T18:49:15.568Z,28.10
2018-07-24T18:51:44.900Z,28.00
2018-07-24T18:54:14.375Z,27.80
2018-07-24T18:56:43.991Z,27.70
2018-07-24T18:59:13.636Z,27.50
2018-07-24T19:01:43.183Z,27.40
2018-07-24T19:04:12.569Z,27.30
2018-07-24T19:06:41.917Z,27.20
2018-07-24T19:09:11.895Z,27.10
2018-07-24T19:11:41.237Z,27.00
2018-07-24T19:14:10.540Z,26.90
2018-07-24T19:16:39.997Z,26.80
2018-07-24T19:19:09.624Z,26.70
2018-07-24T19:21:39.133Z,26.50
2018-07-24T19:24:09.053Z,26.40
2018-07-24T19:26:38.599Z,26.30
2018-07-24T19:29:08.183Z,26.20
2018-07-24T19:31:37.855Z,26.20
2018-07-24T19:34:07.532Z,26.10
2018-07-24T19:36:37.140Z,26.00
2018-07-24T19:39:09.482Z,25.90
2018-07-24T19:41:39.160Z,26.00
2018-07-24T19:44:09.141Z,25.90
2018-07-24T19:46:38.766Z,25.90
2018-07-24T19:49:08.072Z,25.80
2018-07-24T19:51:37.428Z,25.90
2018-07-24T19:54:06.786Z,25.80
2018-07-24T19:56:36.113Z,25.80
2018-07-24T19:59:05.520Z,25.80
2018-07-24T20:01:34.920Z,25.70
2018-07-24T20:04:04.305Z,25.70
2018-07-24T20:06:33.684Z,25.70
2018-07-24T20:09:03.065Z,25.60
2018-07-24T20:11:32.538Z,25.60
2018-07-24T20:14:01.932Z,25.60
2018-07-24T20:16:31.463Z,25.60
2018-07-24T20:19:00.792Z,25.40
2018-07-24T20:21:30.164Z,25.40
2018-07-24T20:26:28.512Z,25.10
2018-07-24T20:28:57.927Z,25.00
2018-07-24T20:31:27.386Z,24.90
2018-07-24T20:33:56.708Z,24.90
2018-07-24T20:36:26.042Z,24.70
2018-07-24T20:38:55.409Z,24.60
2018-07-24T20:41:24.777Z,24.50
2018-07-24T20:43:54.161Z,24.40
2018-07-24T20:46:23.523Z,24.30
2018-07-24T20:48:52.860Z,24.30
2018-07-24T20:51:22.216Z,24.20
2018-07-24T20:53:51.712Z,24.20
2018-07-24T20:56:21.684Z,24.20
2018-07-24T20:58:51.128Z,24.10
2018-07-24T21:01:20.577Z,24.10
2018-07-24T21:03:49.940Z,24.10
2018-07-24T21:06:19.400Z,24.10
2018-07-24T21:08:48.911Z,24.10
2018-07-24T21:11:18.306Z,24.20
2018-07-24T21:13:47.644Z,24.10
2018-07-24T21:16:17.023Z,24.10
2018-07-24T21:21:15.292Z,24.10
2018-07-24T21:23:44.762Z,24.00
2018-07-24T21:26:14.104Z,23.90
2018-07-24T21:28:43.435Z,23.90
2018-07-24T21:31:12.799Z,23.80
2018-07-24T21:33:42.235Z,23.80
2018-07-24T21:38:40.419Z,23.70
2018-07-24T21:41:09.752Z,23.70
2018-07-24T21:43:39.928Z,23.70
2018-07-24T21:46:09.319Z,23.70
2018-07-24T21:48:38.674Z,23.60
2018-07-24T21:51:08.031Z,23.60
2018-07-24T21:53:37.463Z,23.60
2018-07-24T21:56:07.541Z,23.60
2018-07-24T21:58:37.141Z,23.60
2018-07-24T22:01:11.720Z,23.50
2018-07-24T22:06:11.001Z,23.50
2018-07-24T22:08:40.708Z,23.50
2018-07-24T22:11:10.242Z,23.40
2018-07-24T22:13:39.905Z,23.30
2018-07-24T22:16:09.377Z,23.30
2018-07-24T22:18:38.958Z,23.20
2018-07-24T22:21:08.905Z,23.10
2018-07-24T22:23:38.327Z,23.10
2018-07-24T22:26:07.657Z,23.00
2018-07-24T22:28:37.073Z,23.00
2018-07-24T22:31:06.365Z,23.00
2018-07-24T22:38:33.613Z,23.00
2018-07-24T22:41:02.976Z,23.00
2018-07-24T22:46:01.241Z,22.90
2018-07-24T22:48:30.615Z,22.90
2018-07-24T22:50:59.947Z,22.80
2018-07-24T22:53:29.270Z,22.80
2018-07-24T22:58:27.487Z,22.70
2018-07-24T23:00:56.810Z,22.70
2018-07-24T23:03:26.170Z,22.70
2018-07-24T23:05:55.512Z,22.70
2018-07-24T23:08:24.869Z,22.60
2018-07-24T23:10:54.255Z,22.60
2018-07-24T23:13:23.621Z,22.50
2018-07-24T23:15:59.431Z,22.50
2018-07-24T23:18:28.762Z,22.40
2018-07-24T23:20:58.088Z,22.50
2018-07-24T23:23:27.426Z,22.30
2018-07-24T23:28:25.657Z,22.20
2018-07-24T23:30:55.000Z,22.10
2018-07-24T23:33:24.361Z,22.10
2018-07-24T23:35:53.747Z,22.10
2018-07-24T23:38:23.126Z,22.10
2018-07-24T23:40:52.517Z,22.10
2018-07-24T23:43:21.890Z,22.00
2018-07-24T23:45:51.219Z,22.00
2018-07-24T23:48:20.534Z,21.90
2018-07-24T23:50:49.929Z,21.80
2018-07-24T23:55:48.232Z,21.80
